Time;durP1;ratioP1;P1;durP2;ratioP2;P2;SDS_P1;SDS_P2;PMS_P1;PMS_P2;Temp;Humidity;BMP_temperature;BMP_pressure;BME280_temperature;BME280_humidity;BME280_pressure;Samples;Min_cycle;Max_cycle;Signal;HPM_P1;HPM_P2
2024/01/16 00:02:22;;;;;;;1.10;1.00;;;18.80;37.20;;;;;;5019801;28;20690;-69
2024/01/16 00:04:48;;;;;;;1.80;1.07;;;18.80;37.30;;;;;;5019784;28;20437;-70
2024/01/16 00:07:13;;;;;;;1.10;1.00;;;18.80;37.30;;;;;;5021673;28;20222;-70
2024/01/16 00:09:39;;;;;;;1.33;1.10;;;18.80;37.30;;;;;;5021358;28;20236;-69
2024/01/16 00:12:05;;;;;;;1.03;0.93;;;18.80;37.20;;;;;;5013905;28;20211;-68
2024/01/16 00:14:34;;;;;;;1.20;1.10;;;18.80;37.30;;;;;;5027250;28;20329;-69
2024/01/16 00:16:59;;;;;;;1.90;1.00;;;18.80;37.30;;;;;;5015298;28;20464;-68
2024/01/16 00:19:25;;;;;;;1.00;1.00;;;18.80;37.30;;;;;;5025043;28;21325;-68
2024/01/16 00:21:51;;;;;;;1.30;1.20;;;18.80;37.30;;;;;;5022898;28;20233;-68
2024/01/16 00:24:17;;;;;;;1.20;1.10;;;18.80;37.20;;;;;;5025249;28;20226;-68
2024/01/16 00:26:42;;;;;;;0.90;0.90;;;18.80;37.20;;;;;;5011618;28;20460;-68
2024/01/16 00:29:12;;;;;;;1.10;1.00;;;18.80;37.30;;;;;;5022451;28;20218;-69
2024/01/16 00:31:38;;;;;;;1.30;1.20;;;18.80;37.30;;;;;;5017882;28;20230;-68
2024/01/16 00:34:04;;;;;;;1.13;1.03;;;18.80;37.30;;;;;;5016204;28;20512;-69
2024/01/16 00:36:30;;;;;;;1.00;0.90;;;18.80;37.20;;;;;;5029093;28;21006;-68
2024/01/16 00:38:56;;;;;;;0.90;0.90;;;18.80;37.30;;;;;;5016653;28;20250;-68
2024/01/16 00:41:22;;;;;;;1.10;1.00;;;18.80;37.20;;;;;;5008686;28;20558;-69
2024/01/16 00:43:47;;;;;;;1.20;1.10;;;18.80;37.20;;;;;;5013841;28;20581;-69
2024/01/16 00:46:13;;;;;;;1.20;1.10;;;18.80;37.20;;;;;;5018783;28;20225;-69
2024/01/16 00:48:39;;;;;;;0.90;0.90;;;18.80;37.30;;;;;;5017972;28;20565;-69
2024/01/16 00:51:04;;;;;;;1.20;1.10;;;18.80;37.30;;;;;;5025494;28;20712;-69
2024/01/16 00:53:30;;;;;;;1.23;1.07;;;18.80;37.30;;;;;;5036198;28;20697;-68
2024/01/16 00:55:55;;;;;;;1.93;1.07;;;18.80;37.20;;;;;;5013046;28;20257;-69
2024/01/16 00:58:24;;;;;;;1.20;1.10;;;18.80;37.30;;;;;;5015945;28;20790;-70
2024/01/16 01:00:50;;;;;;;1.20;1.10;;;18.80;37.30;;;;;;5020041;28;20233;-68
2024/01/16 01:03:15;;;;;;;1.20;1.10;;;18.80;37.30;;;;;;5008711;28;20467;-68
2024/01/16 01:05:41;;;;;;;1.00;1.00;;;18.80;37.20;;;;;;5016381;28;20233;-69
2024/01/16 01:08:07;;;;;;;1.17;1.07;;;18.80;37.30;;;;;;5019199;28;20237;-69
2024/01/16 01:10:33;;;;;;;1.20;1.10;;;18.80;37.20;;;;;;5012445;28;20223;-68
2024/01/16 01:12:58;;;;;;;1.20;1.10;;;18.80;37.20;;;;;;5012977;28;20527;-68
2024/01/16 01:15:24;;;;;;;1.10;1.00;;;18.80;37.30;;;;;;5024353;28;20246;-68
2024/01/16 01:17:50;;;;;;;1.23;1.13;;;18.80;37.30;;;;;;5023215;28;20317;-69
2024/01/16 01:20:18;;;;;;;1.10;1.00;;;18.80;37.30;;;;;;5017015;28;20235;-69
2024/01/16 01:22:44;;;;;;;1.20;1.10;;;18.80;37.30;;;;;;5017479;28;20568;-70
2024/01/16 01:25:11;;;;;;;1.30;1.10;;;18.80;37.30;;;;;;5027108;28;20766;-70
2024/01/16 01:27:37;;;;;;;1.20;1.10;;;18.80;37.30;;;;;;5025652;28;20419;-69
2024/01/16 01:30:03;;;;;;;1.23;1.13;;;18.80;37.30;;;;;;5018005;28;20432;-70
2024/01/16 01:32:29;;;;;;;1.20;1.10;;;18.80;37.30;;;;;;5024899;28;21639;-69
2024/01/16 01:34:55;;;;;;;1.20;1.10;;;18.80;37.30;;;;;;5027507;28;20436;-70
2024/01/16 01:37:20;;;;;;;1.10;1.00;;;18.80;37.30;;;;;;5024695;28;20353;-70
2024/01/16 01:39:46;;;;;;;1.20;1.10;;;18.80;37.30;;;;;;5009098;28;20226;-70
2024/01/16 01:42:11;;;;;;;1.30;1.10;;;18.80;37.30;;;;;;5012178;28;20226;-69
2024/01/16 01:44:37;;;;;;;0.93;0.93;;;18.80;37.30;;;;;;5036468;28;20232;-70
2024/01/16 01:47:03;;;;;;;1.10;1.00;;;18.80;37.30;;;;;;5027639;28;20222;-69
2024/01/16 01:49:28;;;;;;;1.80;1.70;;;18.80;37.30;;;;;;5028539;28;20749;-70
2024/01/16 01:51:55;;;;;;;1.20;1.10;;;18.80;37.30;;;;;;5020433;28;20419;-69
2024/01/16 01:54:22;;;;;;;1.20;1.10;;;18.80;37.30;;;;;;5065115;28;20218;-69
2024/01/16 01:56:49;;;;;;;1.10;1.00;;;18.80;37.30;;;;;;5024462;28;21199;-69
2024/01/16 01:59:16;;;;;;;1.23;1.13;;;18.80;37.30;;;;;;5025706;28;20467;-70
2024/01/16 02:01:48;;;;;;;1.53;1.20;;;18.80;37.30;;;;;;5029683;28;20478;-69
2024/01/16 02:04:17;;;;;;;1.10;1.00;;;18.80;37.20;;;;;;5016185;28;20451;-69
2024/01/16 02:09:46;;;;;;;2.53;0.93;;;18.80;37.30;;;;;;5010626;28;21353;-70
2024/01/16 02:12:12;;;;;;;1.40;1.30;;;18.80;37.30;;;;;;5014546;28;20434;-69
2024/01/16 02:14:37;;;;;;;1.27;1.17;;;18.80;37.30;;;;;;5020723;28;20475;-70
2024/01/16 02:17:03;;;;;;;1.20;1.10;;;18.80;37.30;;;;;;5014864;28;20756;-69
2024/01/16 02:19:29;;;;;;;1.23;1.10;;;18.80;37.30;;;;;;5014482;28;20752;-70
2024/01/16 02:21:59;;;;;;;1.13;1.03;;;18.70;37.10;;;;;;5019298;28;20827;-69
2024/01/16 02:24:25;;;;;;;4.57;1.20;;;18.80;37.30;;;;;;5026655;28;20226;-70
2024/01/16 02:26:51;;;;;;;1.33;1.23;;;18.80;37.30;;;;;;5032132;28;20978;-69
2024/01/16 02:29:17;;;;;;;1.20;1.10;;;18.80;37.30;;;;;;5038990;28;20312;-69
2024/01/16 02:31:43;;;;;;;1.10;1.00;;;18.80;37.30;;;;;;5025508;28;20257;-70
2024/01/16 02:34:08;;;;;;;1.13;1.03;;;18.80;37.30;;;;;;5028435;28;20451;-71
2024/01/16 02:36:34;;;;;;;1.10;1.00;;;18.70;37.20;;;;;;5030275;28;20218;-69
2024/01/16 02:39:00;;;;;;;1.40;1.30;;;18.80;37.30;;;;;;5021128;28;20238;-69
2024/01/16 02:41:26;;;;;;;1.27;1.17;;;18.80;37.30;;;;;;5019231;28;20234;-69
2024/01/16 02:43:51;;;;;;;1.17;1.07;;;18.80;37.30;;;;;;5035487;28;20317;-69
2024/01/16 02:46:17;;;;;;;1.00;1.00;;;18.80;37.30;;;;;;5032942;28;20233;-69
2024/01/16 02:48:43;;;;;;;1.23;1.13;;;18.70;37.20;;;;;;5025419;28;20250;-69
2024/01/16 02:51:08;;;;;;;1.00;0.90;;;18.80;37.30;;;;;;5024751;28;20229;-68
2024/01/16 02:53:34;;;;;;;1.10;1.00;;;18.80;37.30;;;;;;5022887;28;20257;-68
2024/01/16 02:56:00;;;;;;;1.20;1.10;;;18.70;37.10;;;;;;5022535;28;20582;-69
2024/01/16 02:58:29;;;;;;;1.17;1.07;;;18.80;37.30;;;;;;5021701;28;20236;-69
2024/01/16 03:00:55;;;;;;;1.20;1.10;;;18.80;37.30;;;;;;5013672;28;20242;-68
2024/01/16 03:03:20;;;;;;;1.10;1.00;;;18.80;37.30;;;;;;5019925;28;21017;-68
2024/01/16 03:05:47;;;;;;;1.17;1.07;;;18.80;37.30;;;;;;5012794;28;20238;-68
2024/01/16 03:08:12;;;;;;;1.20;1.10;;;18.70;37.20;;;;;;5022527;28;20225;-68
2024/01/16 03:10:38;;;;;;;1.20;1.10;;;18.70;37.20;;;;;;5027774;28;20463;-69
2024/01/16 03:13:04;;;;;;;1.30;1.20;;;18.80;37.30;;;;;;5037526;28;20283;-68
2024/01/16 03:15:30;;;;;;;1.20;1.10;;;18.80;37.30;;;;;;5019823;28;20235;-68
2024/01/16 03:18:00;;;;;;;1.20;1.10;;;18.80;37.30;;;;;;5009903;28;20670;-68
2024/01/16 03:20:27;;;;;;;1.10;1.00;;;18.70;37.20;;;;;;5033422;28;20517;-68
2024/01/16 03:22:52;;;;;;;1.03;1.00;;;18.70;37.20;;;;;;5031592;28;20516;-68
2024/01/16 03:25:19;;;;;;;1.17;1.07;;;18.70;37.10;;;;;;5010600;28;20467;-69
2024/01/16 03:27:44;;;;;;;1.30;1.20;;;18.80;37.30;;;;;;5017624;28;20223;-68
2024/01/16 03:30:10;;;;;;;1.20;1.10;;;18.80;37.20;;;;;;5017634;28;20442;-69
2024/01/16 03:32:37;;;;;;;1.23;1.13;;;18.80;37.30;;;;;;5016828;28;20645;-67
2024/01/16 03:35:03;;;;;;;1.40;1.30;;;18.80;37.30;;;;;;5020993;28;20445;-69
2024/01/16 03:37:29;;;;;;;1.10;1.03;;;18.80;37.30;;;;;;5022417;28;20585;-68
2024/01/16 03:39:54;;;;;;;1.10;1.00;;;18.80;37.30;;;;;;5017169;28;20423;-69
2024/01/16 03:42:20;;;;;;;0.97;0.97;;;18.80;37.30;;;;;;5021485;28;20226;-68
2024/01/16 03:44:46;;;;;;;1.30;1.20;;;18.80;37.30;;;;;;5032263;28;20245;-68
2024/01/16 03:47:11;;;;;;;1.10;1.00;;;18.80;37.30;;;;;;5031664;28;20225;-69
2024/01/16 03:49:37;;;;;;;0.97;0.97;;;18.80;37.30;;;;;;5036227;28;20240;-69
2024/01/16 03:52:03;;;;;;;1.27;1.17;;;18.80;37.30;;;;;;5034125;28;20227;-69
2024/01/16 03:54:28;;;;;;;1.10;1.00;;;18.80;37.20;;;;;;5024960;28;20232;-69
2024/01/16 03:56:54;;;;;;;1.17;1.07;;;18.80;37.30;;;;;;5025647;28;20237;-69
2024/01/16 03:59:19;;;;;;;1.10;1.00;;;18.80;37.30;;;;;;5034581;28;20272;-69
2024/01/16 04:01:45;;;;;;;1.10;1.00;;;18.80;37.30;;;;;;5016978;28;20245;-69
2024/01/16 04:04:11;;;;;;;1.30;1.20;;;18.80;37.20;;;;;;5018800;28;20319;-69
2024/01/16 04:06:37;;;;;;;1.00;0.90;;;18.80;37.20;;;;;;5031138;28;20237;-69
2024/01/16 04:09:03;;;;;;;1.00;0.90;;;18.80;37.20;;;;;;5036009;28;20225;-69
2024/01/16 04:11:29;;;;;;;1.43;1.13;;;18.80;37.20;;;;;;5032574;28;20257;-69
2024/01/16 04:13:55;;;;;;;1.30;1.20;;;18.80;37.20;;;;;;5021273;28;20264;-69
2024/01/16 04:16:21;;;;;;;1.20;1.10;;;18.80;37.20;;;;;;5013903;28;20561;-69
2024/01/16 04:18:47;;;;;;;1.20;1.10;;;18.80;37.20;;;;;;5016300;28;20896;-69
2024/01/16 04:21:13;;;;;;;1.10;1.00;;;18.80;37.20;;;;;;5023842;28;20281;-69
2024/01/16 04:23:39;;;;;;;1.10;1.00;;;18.80;37.20;;;;;;5012655;28;20464;-69
2024/01/16 04:26:05;;;;;;;1.10;1.00;;;18.80;37.30;;;;;;5032898;28;20230;-69
2024/01/16 04:28:30;;;;;;;1.10;1.00;;;18.80;37.20;;;;;;5034483;28;20223;-69
2024/01/16 04:30:56;;;;;;;0.80;0.80;;;18.80;37.20;;;;;;5013669;28;20284;-69
2024/01/16 04:33:21;;;;;;;1.20;1.10;;;18.80;37.20;;;;;;5022519;28;20671;-69
2024/01/16 04:35:47;;;;;;;0.87;0.87;;;18.80;37.20;;;;;;5026556;28;20760;-69
2024/01/16 04:38:13;;;;;;;1.17;1.07;;;18.80;37.20;;;;;;5018486;28;20228;-69
2024/01/16 04:40:39;;;;;;;1.17;1.00;;;18.80;37.20;;;;;;5018368;28;20472;-69
2024/01/16 04:43:05;;;;;;;1.10;1.00;;;18.80;37.20;;;;;;5022354;28;20226;-69
2024/01/16 04:45:30;;;;;;;0.90;0.90;;;18.80;37.20;;;;;;5031984;28;20553;-69
2024/01/16 04:47:56;;;;;;;0.90;0.80;;;18.80;37.20;;;;;;5030016;28;20465;-69
2024/01/16 04:50:21;;;;;;;1.00;0.90;;;18.80;37.10;;;;;;5024297;28;20223;-69
2024/01/16 04:52:47;;;;;;;1.10;1.00;;;18.80;37.10;;;;;;5025520;28;20226;-69
2024/01/16 04:55:13;;;;;;;1.30;1.20;;;18.80;37.10;;;;;;5024944;28;20223;-69
2024/01/16 04:57:38;;;;;;;2.80;1.00;;;18.80;37.10;;;;;;5030170;28;20229;-69
2024/01/16 05:00:06;;;;;;;1.60;0.90;;;18.80;37.00;;;;;;5032296;28;20229;-69
2024/01/16 05:02:32;;;;;;;1.00;0.90;;;18.80;37.00;;;;;;5027449;28;20226;-69
2024/01/16 05:04:58;;;;;;;1.00;1.00;;;18.80;37.00;;;;;;5030715;28;20653;-69
2024/01/16 05:07:24;;;;;;;0.83;0.83;;;18.90;37.00;;;;;;5036872;28;20469;-68
2024/01/16 05:09:50;;;;;;;0.80;0.80;;;18.90;37.00;;;;;;5038091;28;20234;-67
2024/01/16 05:12:16;;;;;;;1.10;1.00;;;18.90;37.00;;;;;;5032419;28;20449;-67
2024/01/16 05:14:41;;;;;;;0.90;0.90;;;18.90;37.00;;;;;;5015741;28;20218;-68
2024/01/16 05:17:08;;;;;;;1.10;1.00;;;18.90;36.90;;;;;;5017957;28;20230;-67
2024/01/16 05:19:33;;;;;;;1.07;1.00;;;18.90;36.90;;;;;;5020398;28;20947;-68
2024/01/16 05:21:59;;;;;;;0.90;0.80;;;18.90;36.90;;;;;;5030758;28;20467;-68
2024/01/16 05:24:24;;;;;;;1.03;0.93;;;19.00;37.00;;;;;;5026738;28;20296;-68
2024/01/16 05:26:50;;;;;;;1.10;1.00;;;19.00;37.00;;;;;;5028994;28;20697;-69
2024/01/16 05:29:16;;;;;;;1.10;1.00;;;19.00;37.00;;;;;;5016092;28;20280;-71
2024/01/16 05:31:42;;;;;;;1.00;0.90;;;19.00;36.90;;;;;;5015653;28;20231;-69
2024/01/16 05:34:09;;;;;;;1.07;1.00;;;19.00;36.90;;;;;;5022964;28;20467;-68
2024/01/16 05:36:34;;;;;;;0.97;0.87;;;19.00;37.00;;;;;;5023548;28;20639;-69
2024/01/16 05:39:00;;;;;;;1.00;1.00;;;19.00;37.00;;;;;;5009538;28;20444;-69
2024/01/16 05:41:27;;;;;;;1.17;1.07;;;19.00;37.00;;;;;;5022734;28;20230;-68
2024/01/16 05:43:52;;;;;;;0.87;0.87;;;19.00;37.00;;;;;;5021916;28;20214;-68
2024/01/16 05:46:18;;;;;;;1.03;0.90;;;19.00;37.00;;;;;;5025830;28;20463;-68
2024/01/16 05:48:44;;;;;;;4.30;1.00;;;19.00;37.00;;;;;;5017219;28;20245;-69
2024/01/16 05:51:09;;;;;;;0.90;0.90;;;19.00;37.00;;;;;;5037753;28;20246;-68
2024/01/16 05:53:35;;;;;;;1.07;0.97;;;19.00;37.10;;;;;;5035209;28;20222;-69
2024/01/16 05:56:01;;;;;;;1.00;1.00;;;19.00;37.10;;;;;;5032370;28;22160;-68
2024/01/16 05:58:26;;;;;;;1.37;0.83;;;19.00;37.10;;;;;;5017016;28;20829;-69
2024/01/16 06:00:52;;;;;;;1.30;1.10;;;19.00;37.10;;;;;;5024022;28;20238;-66
2024/01/16 06:03:17;;;;;;;0.80;0.80;;;19.00;37.10;;;;;;5023159;28;20215;-69
2024/01/16 06:05:43;;;;;;;1.30;1.20;;;19.00;37.10;;;;;;5016148;28;20221;-71
2024/01/16 06:08:09;;;;;;;1.30;1.20;;;19.00;37.10;;;;;;5026449;28;20211;-71
2024/01/16 06:10:34;;;;;;;1.50;1.20;;;19.00;37.00;;;;;;5038630;28;20289;-72
2024/01/16 06:13:00;;;;;;;1.37;1.27;;;19.00;37.00;;;;;;5040475;28;20242;-69
2024/01/16 06:15:25;;;;;;;1.30;1.20;;;19.00;36.90;;;;;;5029409;28;20218;-68
2024/01/16 06:17:51;;;;;;;1.37;1.27;;;19.00;36.90;;;;;;5026086;28;20241;-67
2024/01/16 06:20:16;;;;;;;1.63;1.30;;;19.00;36.80;;;;;;5033846;28;20215;-68
2024/01/16 06:22:42;;;;;;;1.50;1.40;;;19.00;36.80;;;;;;5032076;28;20677;-71
2024/01/16 06:25:08;;;;;;;2.13;1.60;;;19.00;36.70;;;;;;5022899;28;20236;-69
2024/01/16 06:27:33;;;;;;;1.60;1.50;;;19.00;36.70;;;;;;5024853;28;20302;-68
2024/01/16 06:29:59;;;;;;;1.50;1.40;;;19.00;36.60;;;;;;5016881;28;20230;-70
2024/01/16 06:32:24;;;;;;;1.70;1.60;;;19.00;36.60;;;;;;5019242;28;20242;-69
2024/01/16 06:34:50;;;;;;;1.70;1.60;;;19.00;36.50;;;;;;5018509;28;20231;-69
2024/01/16 06:37:15;;;;;;;2.10;1.90;;;19.00;36.50;;;;;;5025621;28;20253;-69
2024/01/16 06:39:41;;;;;;;5.80;1.50;;;19.00;36.40;;;;;;5031069;28;20296;-69
2024/01/16 06:42:07;;;;;;;1.77;1.60;;;19.00;36.30;;;;;;5008649;28;20257;-69
2024/01/16 06:44:32;;;;;;;1.80;1.70;;;19.00;36.20;;;;;;5025441;28;20273;-69
2024/01/16 06:46:58;;;;;;;1.63;1.53;;;19.00;36.20;;;;;;5026458;28;20231;-69
2024/01/16 06:49:23;;;;;;;1.70;1.60;;;19.00;37.00;;;;;;5022339;28;20238;-69
2024/01/16 06:51:49;;;;;;;1.80;1.70;;;19.00;36.20;;;;;;5021913;28;20223;-69
2024/01/16 06:54:14;;;;;;;1.77;1.63;;;19.00;36.10;;;;;;5029490;28;20226;-69
2024/01/16 06:56:40;;;;;;;3.10;1.77;;;19.00;36.10;;;;;;5024129;28;20305;-69
2024/01/16 06:59:06;;;;;;;2.10;1.90;;;18.90;36.00;;;;;;5029415;28;20302;-69
2024/01/16 07:01:32;;;;;;;2.70;1.57;;;18.90;35.90;;;;;;5035858;28;20234;-69
2024/01/16 07:03:57;;;;;;;1.70;1.60;;;18.90;36.80;;;;;;5025371;28;20230;-69
2024/01/16 07:06:23;;;;;;;1.70;1.60;;;18.90;35.90;;;;;;5023228;28;20234;-69
2024/01/16 07:08:48;;;;;;;1.93;1.83;;;18.90;35.80;;;;;;5030336;28;20297;-69
2024/01/16 07:11:14;;;;;;;1.90;1.80;;;18.90;35.80;;;;;;5031624;28;20237;-69
2024/01/16 07:13:40;;;;;;;5.63;2.67;;;18.90;35.80;;;;;;5016491;28;20234;-69
2024/01/16 07:16:10;;;;;;;2.87;1.80;;;18.90;35.80;;;;;;5022567;28;20226;-70
2024/01/16 07:18:35;;;;;;;2.23;2.07;;;18.90;35.80;;;;;;5034312;28;20532;-70
2024/01/16 07:21:02;;;;;;;2.43;1.80;;;18.90;35.70;;;;;;5023613;28;20513;-69
2024/01/16 07:23:28;;;;;;;1.90;1.80;;;18.90;35.70;;;;;;5023697;28;20241;-69
2024/01/16 07:25:54;;;;;;;2.07;1.90;;;18.90;35.70;;;;;;5036100;28;20442;-69
2024/01/16 07:28:21;;;;;;;2.20;2.10;;;18.90;35.60;;;;;;5028617;28;20222;-70
2024/01/16 07:30:47;;;;;;;1.93;1.83;;;18.90;35.60;;;;;;5038635;28;20241;-69
2024/01/16 07:33:13;;;;;;;1.73;1.63;;;18.90;35.60;;;;;;5040647;28;20948;-70
2024/01/16 07:35:41;;;;;;;1.73;1.63;;;18.90;35.60;;;;;;5018230;28;20227;-69
2024/01/16 07:38:06;;;;;;;2.40;2.20;;;18.90;36.40;;;;;;5031390;28;20218;-69
2024/01/16 07:40:32;;;;;;;2.00;1.90;;;18.90;36.30;;;;;;5026570;28;20521;-69
2024/01/16 07:42:57;;;;;;;1.50;1.40;;;18.90;35.60;;;;;;5023642;28;20706;-69
2024/01/16 07:45:23;;;;;;;2.60;2.40;;;18.90;35.60;;;;;;5026681;28;20226;-70
2024/01/16 07:47:49;;;;;;;2.00;1.80;;;18.90;35.60;;;;;;5019534;28;20223;-69
2024/01/16 07:50:15;;;;;;;1.60;1.50;;;18.90;35.60;;;;;;5029334;28;20443;-69
2024/01/16 07:52:40;;;;;;;1.60;1.50;;;18.90;35.50;;;;;;5034987;28;20234;-69
2024/01/16 07:55:06;;;;;;;1.70;1.60;;;18.80;35.40;;;;;;5017699;28;20276;-70
2024/01/16 07:57:32;;;;;;;1.90;1.80;;;18.80;35.40;;;;;;5007908;28;20288;-68
2024/01/16 07:59:57;;;;;;;1.80;1.70;;;18.80;35.40;;;;;;5018987;28;20567;-69
2024/01/16 08:02:31;;;;;;;1.60;1.50;;;18.80;35.50;;;;;;5027665;28;20270;-69
2024/01/16 08:04:57;;;;;;;1.90;1.80;;;18.80;35.40;;;;;;5029475;28;20231;-69
2024/01/16 08:07:22;;;;;;;1.87;1.40;;;18.80;35.40;;;;;;5020786;28;20462;-69
2024/01/16 08:09:48;;;;;;;1.90;1.80;;;18.80;35.40;;;;;;5030192;28;20218;-69
2024/01/16 08:12:14;;;;;;;1.70;1.60;;;18.80;35.40;;;;;;5056815;28;20786;-69
2024/01/16 08:14:39;;;;;;;1.70;1.60;;;18.80;35.40;;;;;;5023228;28;20292;-69
2024/01/16 08:17:05;;;;;;;1.60;1.50;;;18.80;35.30;;;;;;5024302;28;20226;-70
2024/01/16 08:19:30;;;;;;;1.90;1.80;;;18.80;35.30;;;;;;5024679;28;20591;-69
2024/01/16 08:21:56;;;;;;;3.50;1.90;;;18.80;35.30;;;;;;5028840;28;20257;-69
2024/01/16 08:24:22;;;;;;;1.93;1.83;;;18.80;35.30;;;;;;5033782;28;20227;-69
2024/01/16 08:26:48;;;;;;;1.60;1.50;;;18.80;35.30;;;;;;5026048;28;20764;-69
2024/01/16 08:29:14;;;;;;;1.60;1.50;;;18.80;35.30;;;;;;5019509;28;20487;-69
2024/01/16 08:31:40;;;;;;;1.93;1.83;;;18.80;35.30;;;;;;5022103;28;20593;-69
2024/01/16 08:34:05;;;;;;;1.50;1.40;;;18.80;35.30;;;;;;5037051;28;20296;-69
2024/01/16 08:36:31;;;;;;;2.33;2.13;;;18.80;35.30;;;;;;5038125;28;20233;-70
2024/01/16 08:38:56;;;;;;;1.60;1.50;;;18.70;35.20;;;;;;5031478;28;20232;-69
2024/01/16 08:41:22;;;;;;;1.90;1.80;;;18.80;35.30;;;;;;5023257;28;20235;-70
2024/01/16 08:43:47;;;;;;;1.60;1.50;;;18.70;35.10;;;;;;5025324;28;20253;-69
2024/01/16 08:46:13;;;;;;;2.00;1.80;;;18.70;35.10;;;;;;5023656;28;20297;-69
2024/01/16 08:48:40;;;;;;;1.80;1.70;;;18.70;35.10;;;;;;5023397;28;20230;-69
2024/01/16 08:51:09;;;;;;;1.77;1.67;;;18.70;35.20;;;;;;5016603;28;20254;-69
2024/01/16 08:53:35;;;;;;;2.00;1.90;;;18.70;35.10;;;;;;5026736;28;20441;-69
2024/01/16 08:56:00;;;;;;;2.10;1.83;;;18.70;35.10;;;;;;5025486;28;20443;-69
2024/01/16 08:58:26;;;;;;;1.60;1.50;;;18.70;35.10;;;;;;5020696;28;20234;-69
2024/01/16 09:00:52;;;;;;;2.60;2.40;;;18.70;35.10;;;;;;5017970;28;20238;-70
2024/01/16 09:03:18;;;;;;;1.70;1.60;;;18.70;35.10;;;;;;5032387;28;21231;-69
2024/01/16 09:05:43;;;;;;;1.80;1.70;;;18.70;35.10;;;;;;5019431;28;20269;-69
2024/01/16 09:08:09;;;;;;;1.90;1.80;;;18.70;35.00;;;;;;5028049;28;20222;-69
2024/01/16 09:10:35;;;;;;;1.70;1.60;;;18.70;35.00;;;;;;5015269;28;20283;-69
2024/01/16 09:13:00;;;;;;;2.73;1.97;;;18.70;35.00;;;;;;5029253;28;20234;-69
2024/01/16 09:15:26;;;;;;;1.70;1.60;;;18.70;34.90;;;;;;5020546;28;20222;-69
2024/01/16 09:17:51;;;;;;;1.50;1.40;;;18.70;35.00;;;;;;5020869;28;20223;-69
2024/01/16 09:20:17;;;;;;;1.77;1.67;;;18.70;35.00;;;;;;5020241;28;20231;-69
2024/01/16 09:22:42;;;;;;;1.70;1.60;;;18.70;35.00;;;;;;5026595;28;20681;-69
2024/01/16 09:25:08;;;;;;;1.67;1.57;;;18.70;35.00;;;;;;5030672;28;20577;-69
2024/01/16 09:27:33;;;;;;;1.73;1.63;;;18.70;35.00;;;;;;5024728;28;20218;-69
2024/01/16 09:29:59;;;;;;;1.60;1.50;;;18.70;34.90;;;;;;5026596;28;20228;-68
2024/01/16 09:32:25;;;;;;;1.50;1.40;;;18.70;34.90;;;;;;5018625;28;20253;-70
2024/01/16 09:34:50;;;;;;;1.50;1.40;;;18.70;34.90;;;;;;5027395;28;20933;-69
2024/01/16 09:37:16;;;;;;;2.23;1.47;;;18.70;34.90;;;;;;5009802;28;20223;-68
2024/01/16 09:39:42;;;;;;;3.00;1.60;;;18.70;34.90;;;;;;5016486;28;20219;-70
2024/01/16 09:42:08;;;;;;;1.70;1.60;;;18.70;34.90;;;;;;5021912;28;20232;-69
2024/01/16 09:44:34;;;;;;;1.63;1.53;;;18.70;34.90;;;;;;5024734;28;20471;-69
2024/01/16 09:47:01;;;;;;;1.53;1.43;;;18.70;35.00;;;;;;5021385;28;20241;-68
2024/01/16 09:49:29;;;;;;;1.70;1.60;;;18.70;34.90;;;;;;5019737;28;20426;-69
2024/01/16 09:51:54;;;;;;;1.57;1.47;;;18.70;34.90;;;;;;5021912;28;20429;-71
2024/01/16 09:54:20;;;;;;;1.40;1.30;;;18.70;34.90;;;;;;5020035;28;21140;-70
2024/01/16 09:56:50;;;;;;;1.63;1.53;;;18.70;34.80;;;;;;5026993;28;20751;-71
2024/01/16 09:59:21;;;;;;;1.90;1.80;;;18.60;34.70;;;;;;5036520;28;21014;-70
2024/01/16 10:01:49;;;;;;;1.67;1.50;;;18.70;34.90;;;;;;5037531;28;20457;-70
2024/01/16 10:04:15;;;;;;;1.50;1.40;;;18.70;34.80;;;;;;5034639;28;20437;-70
2024/01/16 10:06:43;;;;;;;2.07;1.50;;;18.70;34.80;;;;;;5024411;28;20480;-70
2024/01/16 10:09:12;;;;;;;1.63;1.53;;;18.70;34.80;;;;;;5035523;28;20787;-71
2024/01/16 10:11:37;;;;;;;1.60;1.50;;;18.70;34.80;;;;;;5023378;28;20435;-70
2024/01/16 10:14:04;;;;;;;1.53;1.43;;;18.70;34.80;;;;;;5023700;28;20454;-70
2024/01/16 10:17:12;;;;;;;1.57;1.47;;;18.70;34.80;;;;;;5023320;28;20257;-70
2024/01/16 10:19:48;;;;;;;1.63;1.53;;;18.70;34.80;;;;;;5034910;28;20580;-70
2024/01/16 10:22:24;;;;;;;1.83;1.73;;;18.60;34.70;;;;;;5026153;28;21075;-70
2024/01/16 10:25:09;;;;;;;1.70;1.60;;;18.60;34.70;;;;;;5024168;28;20808;-70
2024/01/16 10:27:36;;;;;;;1.40;1.30;;;18.60;34.70;;;;;;5028617;28;20421;-71
2024/01/16 10:30:02;;;;;;;1.40;1.30;;;18.60;34.70;;;;;;5040983;28;20455;-69
2024/01/16 10:32:35;;;;;;;1.47;1.37;;;18.60;34.60;;;;;;5039619;28;20452;-69
2024/01/16 10:35:11;;;;;;;1.47;1.37;;;18.60;34.70;;;;;;5022021;28;20426;-69
2024/01/16 10:37:53;;;;;;;2.07;1.50;;;18.60;34.60;;;;;;5019774;28;20468;-69
2024/01/16 10:40:26;;;;;;;1.60;1.50;;;18.60;34.70;;;;;;5015501;28;20464;-69
2024/01/16 10:43:01;;;;;;;1.40;1.30;;;18.60;34.70;;;;;;5018801;28;20471;-69
2024/01/16 10:45:27;;;;;;;1.30;1.20;;;18.60;34.60;;;;;;5026320;28;20442;-69
2024/01/16 10:48:07;;;;;;;1.60;1.50;;;18.60;34.70;;;;;;5021632;28;20802;-69
2024/01/16 10:50:34;;;;;;;2.00;1.90;;;18.60;34.60;;;;;;5023729;28;20234;-69
2024/01/16 10:53:03;;;;;;;1.60;1.50;;;18.60;34.60;;;;;;5023352;28;20514;-69
2024/01/16 10:55:30;;;;;;;2.00;1.90;;;18.60;34.60;;;;;;5033667;28;20505;-69
2024/01/16 10:57:56;;;;;;;1.50;1.40;;;18.60;34.50;;;;;;5029326;28;21007;-69
2024/01/16 11:00:24;;;;;;;1.20;1.10;;;18.60;34.60;;;;;;5021449;28;20450;-69
2024/01/16 11:02:57;;;;;;;1.40;1.30;;;18.60;34.50;;;;;;5034179;28;20449;-70
2024/01/16 11:05:23;;;;;;;1.30;1.20;;;18.60;34.60;;;;;;5025980;28;20467;-69
2024/01/16 11:07:50;;;;;;;1.53;1.43;;;18.60;34.60;;;;;;5021234;28;20499;-70
2024/01/16 11:10:16;;;;;;;1.37;1.27;;;18.60;34.60;;;;;;5035037;28;20654;-70
2024/01/16 11:12:43;;;;;;;1.40;1.30;;;18.60;34.60;;;;;;5029784;28;20429;-69
2024/01/16 11:15:12;;;;;;;1.30;1.20;;;18.60;34.60;;;;;;5036024;28;20791;-69
2024/01/16 11:17:38;;;;;;;1.73;1.63;;;18.60;34.50;;;;;;5029121;28;20943;-69
2024/01/16 11:20:09;;;;;;;1.47;1.37;;;18.60;34.50;;;;;;5021890;28;20444;-69
2024/01/16 11:22:38;;;;;;;1.20;1.10;;;18.60;34.50;;;;;;5037891;28;20230;-70
2024/01/16 11:25:09;;;;;;;1.73;1.60;;;18.60;34.50;;;;;;5023263;28;20442;-70
2024/01/16 11:27:35;;;;;;;1.50;1.40;;;18.60;34.50;;;;;;5024807;28;20536;-69
2024/01/16 11:30:00;;;;;;;2.40;1.50;;;18.60;34.50;;;;;;5040397;28;20448;-70
2024/01/16 11:32:34;;;;;;;1.30;1.20;;;18.60;34.50;;;;;;5020630;28;20431;-69
2024/01/16 11:35:00;;;;;;;2.30;1.30;;;18.60;34.40;;;;;;5031297;28;20867;-69
2024/01/16 11:37:33;;;;;;;1.83;1.70;;;18.60;34.50;;;;;;5017448;28;20436;-69
2024/01/16 11:40:16;;;;;;;1.50;1.40;;;18.60;34.50;;;;;;5029494;28;20261;-69
2024/01/16 11:42:43;;;;;;;1.40;1.30;;;18.60;34.40;;;;;;5039147;28;20761;-69
2024/01/16 11:45:32;;;;;;;1.37;1.27;;;18.60;34.50;;;;;;5016356;28;20434;-69
2024/01/16 11:48:16;;;;;;;1.23;1.13;;;18.60;34.40;;;;;;5015558;28;20470;-68
2024/01/16 11:50:43;;;;;;;1.30;1.20;;;18.60;34.40;;;;;;5029414;28;20799;-69
2024/01/16 11:53:08;;;;;;;1.60;1.50;;;18.60;34.50;;;;;;5021141;28;20443;-69
2024/01/16 11:55:43;;;;;;;1.57;1.47;;;18.60;34.40;;;;;;5028382;28;20449;-69
2024/01/16 11:58:40;;;;;;;1.40;1.30;;;18.60;34.50;;;;;;5026580;28;20647;-69
2024/01/16 12:01:06;;;;;;;1.53;1.43;;;18.60;34.40;;;;;;5031812;28;20445;-69
2024/01/16 12:03:31;;;;;;;1.77;1.67;;;18.60;34.50;;;;;;5027358;28;20426;-69
2024/01/16 12:05:59;;;;;;;1.30;1.20;;;18.60;34.40;;;;;;5018729;28;20974;-68
2024/01/16 12:08:25;;;;;;;1.60;1.50;;;18.60;34.40;;;;;;5032267;28;20781;-69
2024/01/16 12:10:50;;;;;;;1.60;1.50;;;18.60;34.40;;;;;;5036683;28;20524;-69
2024/01/16 12:13:16;;;;;;;1.53;1.43;;;18.60;34.40;;;;;;5038957;28;20462;-69
2024/01/16 12:15:42;;;;;;;1.60;1.50;;;18.60;34.40;;;;;;5034419;28;20302;-69
2024/01/16 12:18:08;;;;;;;1.73;1.63;;;18.60;34.40;;;;;;5039512;28;20218;-69
2024/01/16 12:20:36;;;;;;;1.43;1.33;;;18.60;34.30;;;;;;5031026;28;20427;-69
2024/01/16 12:23:06;;;;;;;1.67;1.57;;;18.60;34.30;;;;;;5030886;28;20514;-69
2024/01/16 12:25:37;;;;;;;1.37;1.27;;;18.60;34.30;;;;;;5031419;28;20437;-69
2024/01/16 12:28:05;;;;;;;1.40;1.30;;;18.60;34.30;;;;;;5025611;28;20822;-69
2024/01/16 12:30:31;;;;;;;1.23;1.13;;;18.60;34.30;;;;;;5026009;28;22392;-70
2024/01/16 12:33:12;;;;;;;1.57;1.47;;;18.60;34.30;;;;;;5018242;28;20419;-69
2024/01/16 12:35:39;;;;;;;1.37;1.27;;;18.60;34.80;;;;;;5016349;28;21213;-69
2024/01/16 12:38:09;;;;;;;1.60;1.50;;;18.60;34.30;;;;;;5017650;28;20452;-69
2024/01/16 12:40:42;;;;;;;2.60;1.50;;;18.60;34.20;;;;;;5023556;28;20543;-69
2024/01/16 12:43:09;;;;;;;1.30;1.20;;;18.60;34.20;;;;;;5034705;28;20402;-69
2024/01/16 12:45:35;;;;;;;1.57;1.33;;;18.70;34.50;;;;;;5025941;28;20430;-69
2024/01/16 12:48:03;;;;;;;1.37;1.27;;;18.60;34.30;;;;;;5021117;28;20501;-69
2024/01/16 12:50:29;;;;;;;1.50;1.40;;;18.70;34.40;;;;;;5018698;28;20437;-69